Time;durP1;ratioP1;P1;durP2;ratioP2;P2;SDS_P1;SDS_P2;PMS_P1;PMS_P2;Temp;Humidity;BMP_temperature;BMP_pressure;BME280_temperature;BME280_humidity;BME280_pressure;Samples;Min_cycle;Max_cycle;Signal;HPM_P1;HPM_P2
2022/04/01 00:01:49;;;;;;;;;;;6.00;99.90;;;;;;5036793;28;19941;-71
2022/04/01 00:04:15;;;;;;;;;;;6.00;99.90;;;;;;5036672;28;19909;-71
2022/04/01 00:06:40;;;;;;;;;;;6.00;99.90;;;;;;5036656;28;19909;-71
2022/04/01 00:09:06;;;;;;;;;;;5.90;99.90;;;;;;5036676;28;19988;-71
2022/04/01 00:11:31;;;;;;;;;;;5.90;99.90;;;;;;5037155;28;19908;-71
2022/04/01 00:13:57;;;;;;;;;;;5.90;99.90;;;;;;5036527;28;19907;-71
2022/04/01 00:16:22;;;;;;;;;;;5.90;99.90;;;;;;5036536;28;20350;-71
2022/04/01 00:18:48;;;;;;;;;;;5.80;99.90;;;;;;5037062;28;19905;-71
2022/04/01 00:21:13;;;;;;;;;;;5.80;99.90;;;;;;5036432;28;20361;-71
2022/04/01 00:23:39;;;;;;;;;;;5.80;99.90;;;;;;5036382;28;20385;-71
2022/04/01 00:26:04;;;;;;;;;;;5.80;99.90;;;;;;5036337;28;19913;-71
2022/04/01 00:28:30;;;;;;;;;;;5.80;99.90;;;;;;5036567;28;20005;-71
2022/04/01 00:30:55;;;;;;;;;;;5.70;99.90;;;;;;5035829;28;19986;-71
2022/04/01 00:33:21;;;;;;;;;;;5.80;99.90;;;;;;5036115;28;19912;-71
2022/04/01 00:35:46;;;;;;;;;;;5.80;99.90;;;;;;5036178;28;19905;-71
2022/04/01 00:38:12;;;;;;;;;;;5.80;99.90;;;;;;5036970;28;19908;-71
2022/04/01 00:40:39;;;;;;;;;;;5.80;99.90;;;;;;5036067;28;19944;-71
2022/04/01 00:43:05;;;;;;;;;;;5.80;99.90;;;;;;5035886;28;19952;-71
2022/04/01 00:45:30;;;;;;;;;;;5.80;99.90;;;;;;5036250;28;19912;-71
2022/04/01 00:48:01;;;;;;;;;;;5.80;99.90;;;;;;5051292;28;19936;-71
2022/04/01 00:50:28;;;;;;;;;;;5.90;99.90;;;;;;5036234;28;20000;-71
2022/04/01 00:52:54;;;;;;;;;;;5.90;99.90;;;;;;5035801;28;20017;-71
2022/04/01 00:55:20;;;;;;;;;;;5.90;99.90;;;;;;5035773;28;19905;-71
2022/04/01 00:57:46;;;;;;;;;;;5.80;99.90;;;;;;5036305;28;20305;-71
2022/04/01 01:00:12;;;;;;;;;;;5.90;99.90;;;;;;5035685;28;19912;-71
2022/04/01 01:02:39;;;;;;;;;;;5.90;99.90;;;;;;5035420;28;19959;-71
2022/04/01 01:05:04;;;;;;;;;;;5.90;99.90;;;;;;5035958;28;19905;-71
2022/04/01 01:07:30;;;;;;;;;;;5.90;99.90;;;;;;5035563;28;19912;-71
2022/04/01 01:09:56;;;;;;;;;;;5.90;99.90;;;;;;5035677;28;19912;-71
2022/04/01 01:12:21;;;;;;;;;;;5.90;99.90;;;;;;5035418;28;19951;-70
2022/04/01 01:14:47;;;;;;;;;;;5.90;99.90;;;;;;5035413;28;19905;-71
2022/04/01 01:17:14;;;;;;;;;;;6.00;99.90;;;;;;5035634;28;20321;-71
2022/04/01 01:19:40;;;;;;;;;;;6.00;99.90;;;;;;5035370;28;19905;-71
2022/04/01 01:22:06;;;;;;;;;;;5.90;99.90;;;;;;5035585;28;20264;-71
2022/04/01 01:24:32;;;;;;;;;;;6.00;99.90;;;;;;5035253;28;20014;-71
2022/04/01 01:26:59;;;;;;;;;;;6.00;99.90;;;;;;5035158;28;20305;-71
2022/04/01 01:29:29;;;;;;;;;;;6.00;99.90;;;;;;5035183;28;20415;-71
2022/04/01 01:31:55;;;;;;;;;;;6.00;99.90;;;;;;5050473;28;19905;-71
2022/04/01 01:34:22;;;;;;;;;;;6.00;99.90;;;;;;5035016;28;19912;-71
2022/04/01 01:36:48;;;;;;;;;;;6.00;99.90;;;;;;5034980;28;19912;-71
2022/04/01 01:39:14;;;;;;;;;;;6.00;99.90;;;;;;5034938;28;19905;-71
2022/04/01 01:41:41;;;;;;;;;;;6.00;99.90;;;;;;5034874;28;20361;-71
2022/04/01 01:44:06;;;;;;;;;;;5.90;99.90;;;;;;5034032;28;19917;-71
2022/04/01 01:46:32;;;;;;;;;;;5.90;99.90;;;;;;5034815;28;19913;-71
2022/04/01 01:48:57;;;;;;;;;;;6.00;99.90;;;;;;5050146;28;19912;-71
2022/04/01 01:56:52;;;;;;;;;;;5.90;99.90;;;;;;5034669;28;19912;-71
2022/04/01 01:59:18;;;;;;;;;;;5.90;99.90;;;;;;5034570;28;19905;-71
2022/04/01 02:01:43;;;;;;;;;;;5.90;99.90;;;;;;5034512;28;19992;-71
2022/04/01 02:04:09;;;;;;;;;;;5.90;99.90;;;;;;5049681;28;19916;-71
2022/04/01 02:06:35;;;;;;;;;;;5.90;99.90;;;;;;5034421;28;19975;-71
2022/04/01 02:09:00;;;;;;;;;;;5.80;99.90;;;;;;5049747;28;19905;-71
2022/04/01 02:11:26;;;;;;;;;;;5.80;99.90;;;;;;5034386;28;19905;-71
2022/04/01 02:13:52;;;;;;;;;;;5.80;99.90;;;;;;5034624;28;20326;-71
2022/04/01 02:16:18;;;;;;;;;;;5.80;99.90;;;;;;5034584;28;19912;-72
2022/04/01 02:18:44;;;;;;;;;;;5.70;99.90;;;;;;5034532;28;19992;-71
2022/04/01 02:21:15;;;;;;;;;;;5.70;99.90;;;;;;5049570;28;19936;-71
2022/04/01 02:23:41;;;;;;;;;;;5.70;99.90;;;;;;5034098;28;19999;-71
2022/04/01 02:26:07;;;;;;;;;;;5.70;99.90;;;;;;5034023;28;19919;-72
2022/04/01 02:28:33;;;;;;;;;;;5.70;99.90;;;;;;5034202;28;19905;-72
2022/04/01 02:30:59;;;;;;;;;;;5.60;99.90;;;;;;5034026;28;19905;-72
2022/04/01 02:33:25;;;;;;;;;;;5.60;99.90;;;;;;5034145;28;19905;-72
2022/04/01 02:35:51;;;;;;;;;;;5.60;99.90;;;;;;5033988;28;19905;-72
2022/04/01 02:38:16;;;;;;;;;;;5.60;99.90;;;;;;5049336;28;20288;-72
2022/04/01 02:40:42;;;;;;;;;;;5.60;99.90;;;;;;5034512;28;19915;-71
2022/04/01 02:43:07;;;;;;;;;;;5.70;99.90;;;;;;5049182;28;20392;-72
2022/04/01 02:45:33;;;;;;;;;;;5.60;99.90;;;;;;5049207;28;20353;-72
2022/04/01 02:47:58;;;;;;;;;;;5.60;99.90;;;;;;5049246;28;19971;-72
2022/04/01 02:50:26;;;;;;;;;;;5.60;99.90;;;;;;5034047;28;19956;-72
2022/04/01 02:52:51;;;;;;;;;;;5.60;99.90;;;;;;5033740;28;19905;-71
2022/04/01 02:55:17;;;;;;;;;;;5.60;99.90;;;;;;5049164;28;20261;-71
2022/04/01 02:57:43;;;;;;;;;;;5.60;99.90;;;;;;5034334;28;19909;-71
2022/04/01 03:00:09;;;;;;;;;;;5.50;99.90;;;;;;5034068;28;19912;-71
2022/04/01 03:02:35;;;;;;;;;;;5.50;99.90;;;;;;5033569;28;19909;-71
2022/04/01 03:05:03;;;;;;;;;;;5.50;99.90;;;;;;5049025;28;19906;-71
2022/04/01 03:07:28;;;;;;;;;;;5.40;99.90;;;;;;5033650;28;19909;-71
2022/04/01 03:09:54;;;;;;;;;;;5.40;99.90;;;;;;5033936;28;20312;-72
2022/04/01 03:12:19;;;;;;;;;;;5.30;99.90;;;;;;5033948;28;19904;-72
2022/04/01 03:14:45;;;;;;;;;;;5.30;99.90;;;;;;5033521;28;20288;-72
2022/04/01 03:17:11;;;;;;;;;;;5.30;99.90;;;;;;5033986;28;20273;-72
2022/04/01 03:19:39;;;;;;;;;;;5.30;99.90;;;;;;5033594;28;19909;-72
2022/04/01 03:22:05;;;;;;;;;;;5.30;99.90;;;;;;5048885;28;19905;-72
2022/04/01 03:24:31;;;;;;;;;;;5.30;99.90;;;;;;5033331;28;19916;-72
2022/04/01 03:26:57;;;;;;;;;;;5.20;99.90;;;;;;5033447;28;19917;-72
2022/04/01 03:29:22;;;;;;;;;;;5.20;99.90;;;;;;5033724;28;19992;-72
2022/04/01 03:31:48;;;;;;;;;;;5.20;99.90;;;;;;5033453;28;20001;-72
2022/04/01 03:34:14;;;;;;;;;;;5.20;99.90;;;;;;5033357;28;19905;-72
2022/04/01 03:36:40;;;;;;;;;;;5.10;99.90;;;;;;5033646;28;19909;-71
2022/04/01 03:39:06;;;;;;;;;;;5.10;99.90;;;;;;5048732;28;19905;-72
2022/04/01 03:41:33;;;;;;;;;;;5.10;99.90;;;;;;5049614;28;20365;-71
2022/04/01 03:44:02;;;;;;;;;;;5.10;99.90;;;;;;5033242;28;19909;-71
2022/04/01 03:46:29;;;;;;;;;;;5.10;99.90;;;;;;5033940;28;19986;-72
2022/04/01 03:49:01;;;;;;;;;;;5.10;99.90;;;;;;5033301;28;19905;-72
2022/04/01 03:51:28;;;;;;;;;;;5.10;99.90;;;;;;5033549;28;19960;-71
2022/04/01 03:53:58;;;;;;;;;;;5.10;99.90;;;;;;5033135;28;19905;-72
2022/04/01 03:56:28;;;;;;;;;;;5.00;99.90;;;;;;5033199;28;19905;-72
2022/04/01 03:58:58;;;;;;;;;;;5.00;99.90;;;;;;5033549;28;19912;-72
2022/04/01 04:01:24;;;;;;;;;;;5.00;99.90;;;;;;5033746;28;19999;-72
2022/04/01 04:03:50;;;;;;;;;;;4.90;99.90;;;;;;5032998;28;20073;-71
2022/04/01 04:06:16;;;;;;;;;;;4.90;99.90;;;;;;5034797;28;20007;-72
2022/04/01 04:08:43;;;;;;;;;;;4.90;99.90;;;;;;5036706;28;19905;-72
2022/04/01 04:11:09;;;;;;;;;;;4.90;99.90;;;;;;5036913;28;20350;-72
2022/04/01 04:13:36;;;;;;;;;;;4.90;99.90;;;;;;5051871;28;19928;-72
2022/04/01 04:16:10;;;;;;;;;;;4.80;99.90;;;;;;5036770;28;19941;-72
2022/04/01 04:18:45;;;;;;;;;;;4.80;99.90;;;;;;5036461;28;20372;-71
2022/04/01 04:21:14;;;;;;;;;;;4.80;99.90;;;;;;5036435;28;19944;-71
2022/04/01 04:23:44;;;;;;;;;;;4.80;99.90;;;;;;5035000;28;19916;-71
2022/04/01 04:26:15;;;;;;;;;;;4.80;99.90;;;;;;5036238;28;19996;-71
2022/04/01 04:28:46;;;;;;;;;;;4.70;99.90;;;;;;5035899;28;19954;-71
2022/04/01 04:31:12;;;;;;;;;;;4.70;99.90;;;;;;5034268;28;19970;-71
2022/04/01 04:33:47;;;;;;;;;;;4.60;99.90;;;;;;5034122;28;20417;-70
2022/04/01 04:36:15;;;;;;;;;;;4.70;99.90;;;;;;5034237;28;20002;-71
2022/04/01 04:38:42;;;;;;;;;;;4.60;99.90;;;;;;5034313;28;20274;-71
2022/04/01 04:41:08;;;;;;;;;;;4.60;99.90;;;;;;5034276;28;20337;-71
2022/04/01 04:43:38;;;;;;;;;;;4.60;99.90;;;;;;5034260;28;20420;-71
2022/04/01 04:46:04;;;;;;;;;;;4.50;99.90;;;;;;5035224;28;19972;-71
2022/04/01 04:48:31;;;;;;;;;;;4.50;99.90;;;;;;5035986;28;19939;-71
2022/04/01 04:50:59;;;;;;;;;;;4.50;99.90;;;;;;5036479;28;19959;-71
2022/04/01 04:53:27;;;;;;;;;;;4.60;99.90;;;;;;5035780;28;20369;-71
2022/04/01 04:55:53;;;;;;;;;;;4.50;99.90;;;;;;5036369;28;19909;-71
2022/04/01 04:58:21;;;;;;;;;;;4.60;99.90;;;;;;5036008;28;20411;-71
2022/04/01 05:00:51;;;;;;;;;;;4.50;99.90;;;;;;5035729;28;19905;-71
2022/04/01 05:03:25;;;;;;;;;;;4.50;99.90;;;;;;5034689;28;20325;-71
2022/04/01 05:05:56;;;;;;;;;;;4.60;99.90;;;;;;5036024;28;19906;-71
2022/04/01 05:08:31;;;;;;;;;;;4.50;99.90;;;;;;5035696;28;19905;-72
2022/04/01 05:11:11;;;;;;;;;;;4.50;99.90;;;;;;5035570;28;19960;-72
2022/04/01 05:13:47;;;;;;;;;;;4.50;99.90;;;;;;5035751;28;19905;-71
2022/04/01 05:16:27;;;;;;;;;;;4.50;99.90;;;;;;5035459;28;19909;-72
2022/04/01 05:19:03;;;;;;;;;;;4.50;99.90;;;;;;5033139;28;20277;-72
2022/04/01 05:21:35;;;;;;;;;;;4.50;99.90;;;;;;5035863;28;20007;-71
2022/04/01 05:24:01;;;;;;;;;;;4.40;99.90;;;;;;5035273;28;19959;-72
2022/04/01 05:26:40;;;;;;;;;;;4.40;99.90;;;;;;5035144;28;20003;-71
2022/04/01 05:29:09;;;;;;;;;;;4.40;99.90;;;;;;5035238;28;19951;-71
2022/04/01 05:31:36;;;;;;;;;;;4.40;99.90;;;;;;5035132;28;20511;-72
2022/04/01 05:34:24;;;;;;;;;;;4.40;99.90;;;;;;5035069;28;19944;-72
2022/04/01 05:36:51;;;;;;;;;;;4.40;99.90;;;;;;5033820;28;20043;-71
2022/04/01 05:39:17;;;;;;;;;;;4.40;99.90;;;;;;5035513;28;20300;-72
2022/04/01 05:41:45;;;;;;;;;;;4.40;99.90;;;;;;5034887;28;19909;-71
2022/04/01 05:44:12;;;;;;;;;;;4.40;99.90;;;;;;5033437;28;19996;-71
2022/04/01 05:46:39;;;;;;;;;;;4.40;99.90;;;;;;5034815;28;19905;-71
2022/04/01 05:49:05;;;;;;;;;;;4.30;99.90;;;;;;5033572;28;19995;-71
2022/04/01 05:51:31;;;;;;;;;;;4.40;99.90;;;;;;5034774;28;19940;-71
2022/04/01 05:53:56;;;;;;;;;;;4.30;99.90;;;;;;5034748;28;19911;-71
2022/04/01 05:56:22;;;;;;;;;;;4.30;99.90;;;;;;5034864;28;19916;-71
2022/04/01 05:58:47;;;;;;;;;;;4.30;99.90;;;;;;5034981;28;19952;-72
2022/04/01 06:01:22;;;;;;;;;;;4.40;99.90;;;;;;5034560;28;19905;-71
2022/04/01 06:04:07;;;;;;;;;;;4.40;99.90;;;;;;5034400;28;19952;-72
2022/04/01 06:06:38;;;;;;;;;;;4.40;99.90;;;;;;5034867;28;19916;-72
2022/04/01 06:09:07;;;;;;;;;;;4.40;99.90;;;;;;5034797;28;19905;-72
2022/04/01 06:11:56;;;;;;;;;;;4.40;99.90;;;;;;5034428;28;19909;-71
2022/04/01 06:14:40;;;;;;;;;;;4.40;99.90;;;;;;5015187;28;20004;-72
2022/04/01 06:17:08;;;;;;;;;;;4.50;99.90;;;;;;5034288;28;19951;-71
2022/04/01 06:19:34;;;;;;;;;;;4.50;99.90;;;;;;5032992;28;19905;-71
2022/04/01 06:22:03;;;;;;;;;;;4.40;99.90;;;;;;5034251;28;19912;-71
2022/04/01 06:24:28;;;;;;;;;;;4.50;99.90;;;;;;5034300;28;19999;-72
2022/04/01 06:26:58;;;;;;;;;;;4.50;99.90;;;;;;5034034;28;20368;-71
2022/04/01 06:29:29;;;;;;;;;;;4.50;99.90;;;;;;5034379;28;19931;-71
2022/04/01 06:32:02;;;;;;;;;;;4.50;99.90;;;;;;5034362;28;19909;-72
2022/04/01 06:34:46;;;;;;;;;;;4.50;99.90;;;;;;5034029;28;19905;-72
2022/04/01 06:37:14;;;;;;;;;;;4.60;99.90;;;;;;5034017;28;19905;-71
2022/04/01 06:39:45;;;;;;;;;;;4.60;99.90;;;;;;5033944;28;19913;-72
2022/04/01 06:42:13;;;;;;;;;;;4.60;99.90;;;;;;5033991;28;19929;-71
2022/04/01 06:44:39;;;;;;;;;;;4.60;99.90;;;;;;5034081;28;19974;-71
2022/04/01 06:47:05;;;;;;;;;;;4.60;99.90;;;;;;5034459;28;19905;-72
2022/04/01 06:49:31;;;;;;;;;;;4.60;99.90;;;;;;5034153;28;19983;-72
2022/04/01 06:51:56;;;;;;;;;;;4.70;99.90;;;;;;5034338;28;19905;-71
2022/04/01 06:54:22;;;;;;;;;;;4.60;99.90;;;;;;5033782;28;19916;-71
2022/04/01 06:56:48;;;;;;;;;;;4.60;99.90;;;;;;5033800;28;20400;-72
2022/04/01 06:59:13;;;;;;;;;;;4.70;99.90;;;;;;5034088;28;19912;-72
2022/04/01 07:01:39;;;;;;;;;;;4.70;99.90;;;;;;5033748;28;19975;-72
2022/04/01 07:04:04;;;;;;;;;;;4.70;99.90;;;;;;5033562;28;19936;-72
2022/04/01 07:06:30;;;;;;;;;;;4.70;99.90;;;;;;5033942;28;19905;-72
2022/04/01 07:08:56;;;;;;;;;;;4.70;99.90;;;;;;5033716;28;19905;-72
2022/04/01 07:11:22;;;;;;;;;;;4.70;99.90;;;;;;5033612;28;19911;-72
2022/04/01 07:13:48;;;;;;;;;;;4.70;99.90;;;;;;5032222;28;19905;-72
2022/04/01 07:16:14;;;;;;;;;;;4.70;99.90;;;;;;5033599;28;19906;-72
2022/04/01 07:18:39;;;;;;;;;;;4.80;99.90;;;;;;5033577;28;19905;-72
2022/04/01 07:21:05;;;;;;;;;;;4.70;99.90;;;;;;5033837;28;19905;-72
2022/04/01 07:23:32;;;;;;;;;;;4.80;99.90;;;;;;5032139;28;20023;-72
2022/04/01 07:25:58;;;;;;;;;;;4.80;99.90;;;;;;5033768;28;19920;-72
2022/04/01 07:28:23;;;;;;;;;;;4.80;99.90;;;;;;5033509;28;19904;-72
2022/04/01 07:30:50;;;;;;;;;;;4.80;99.90;;;;;;5033465;28;19905;-72
2022/04/01 07:33:16;;;;;;;;;;;4.90;99.90;;;;;;5033980;28;19998;-72
2022/04/01 07:35:44;;;;;;;;;;;5.00;99.90;;;;;;5033990;28;20285;-72
2022/04/01 07:38:09;;;;;;;;;;;4.90;99.90;;;;;;5033426;28;20292;-72
2022/04/01 07:40:35;;;;;;;;;;;5.00;99.90;;;;;;5034081;28;19999;-72
2022/04/01 07:43:01;;;;;;;;;;;5.00;99.90;;;;;;5037031;28;19956;-71
2022/04/01 07:45:26;;;;;;;;;;;5.10;99.90;;;;;;5037753;28;19912;-71
2022/04/01 07:47:52;;;;;;;;;;;5.10;99.90;;;;;;5037137;28;19916;-71
2022/04/01 07:50:18;;;;;;;;;;;5.20;99.90;;;;;;5037024;28;19905;-71
2022/04/01 07:52:44;;;;;;;;;;;5.30;99.90;;;;;;5037199;28;19951;-71
2022/04/01 07:55:13;;;;;;;;;;;5.40;99.90;;;;;;5037254;28;19908;-71
2022/04/01 07:57:38;;;;;;;;;;;5.40;99.90;;;;;;5037224;28;19905;-71
2022/04/01 08:00:07;;;;;;;;;;;5.50;99.90;;;;;;5035628;28;19938;-71
2022/04/01 08:02:33;;;;;;;;;;;5.50;99.90;;;;;;5036686;28;19909;-72
2022/04/01 08:04:58;;;;;;;;;;;5.50;99.90;;;;;;5036799;28;20036;-72
2022/04/01 08:07:24;;;;;;;;;;;5.60;99.90;;;;;;5037060;28;19905;-71
2022/04/01 08:09:50;;;;;;;;;;;5.70;99.90;;;;;;5036720;28;19948;-72
2022/04/01 08:12:16;;;;;;;;;;;5.70;99.90;;;;;;5036668;28;19905;-71
2022/04/01 08:14:42;;;;;;;;;;;5.80;99.90;;;;;;5035302;28;19904;-71
2022/04/01 08:17:11;;;;;;;;;;;5.80;99.90;;;;;;5035292;28;19904;-71
2022/04/01 08:19:39;;;;;;;;;;;5.90;99.90;;;;;;5036488;28;19909;-71
2022/04/01 08:22:05;;;;;;;;;;;5.90;99.90;;;;;;5035240;28;20384;-71
2022/04/01 08:24:30;;;;;;;;;;;5.90;99.90;;;;;;5036269;28;19913;-71
2022/04/01 08:26:59;;;;;;;;;;;5.90;99.90;;;;;;5036348;28;20285;-72
2022/04/01 08:29:26;;;;;;;;;;;5.90;99.90;;;;;;5036417;28;20341;-71
2022/04/01 08:31:51;;;;;;;;;;;6.00;99.90;;;;;;5036802;28;20277;-71
2022/04/01 08:34:17;;;;;;;;;;;6.10;99.90;;;;;;5036518;28;19905;-71
2022/04/01 08:36:43;;;;;;;;;;;6.20;99.90;;;;;;5036226;28;20400;-71
2022/04/01 08:39:08;;;;;;;;;;;6.30;99.90;;;;;;5036195;28;19905;-72
2022/04/01 08:41:34;;;;;;;;;;;6.30;99.90;;;;;;5036051;28;20366;-71
2022/04/01 08:43:59;;;;;;;;;;;6.40;99.90;;;;;;5036186;28;20010;-71
2022/04/01 08:46:26;;;;;;;;;;;6.50;99.90;;;;;;5034729;28;19920;-71
2022/04/01 08:48:51;;;;;;;;;;;6.60;99.90;;;;;;5035945;28;19905;-71
2022/04/01 08:51:17;;;;;;;;;;;6.70;99.90;;;;;;5035624;28;20365;-71
2022/04/01 08:53:44;;;;;;;;;;;6.80;99.90;;;;;;5035674;28;19909;-71
2022/04/01 08:56:10;;;;;;;;;;;6.90;99.90;;;;;;5035743;28;20304;-71
2022/04/01 08:58:36;;;;;;;;;;;6.90;99.90;;;;;;5035804;28;20388;-71
2022/04/01 09:01:02;;;;;;;;;;;6.90;99.90;;;;;;5034447;28;20357;-71
2022/04/01 09:03:29;;;;;;;;;;;7.00;99.90;;;;;;5036183;28;19932;-71
2022/04/01 09:05:56;;;;;;;;;;;6.90;99.90;;;;;;5035656;28;20396;-71
2022/04/01 09:08:24;;;;;;;;;;;7.00;99.90;;;;;;5034406;28;19905;-72
2022/04/01 09:10:52;;;;;;;;;;;6.90;99.90;;;;;;5035875;28;19931;-72
2022/04/01 09:13:17;;;;;;;;;;;7.00;99.90;;;;;;5035442;28;19905;-72
2022/04/01 09:15:43;;;;;;;;;;;6.90;99.90;;;;;;5035767;28;19909;-72
2022/04/01 09:18:09;;;;;;;;;;;7.00;99.90;;;;;;5035740;28;20055;-71
2022/04/01 09:20:44;;;;;;;;;;;7.00;99.90;;;;;;5035723;28;20417;-71
2022/04/01 09:23:10;;;;;;;;;;;7.20;99.90;;;;;;5035195;28;19909;-71
2022/04/01 09:25:36;;;;;;;;;;;7.40;99.90;;;;;;5035068;28;20000;-72
2022/04/01 09:28:01;;;;;;;;;;;7.50;99.90;;;;;;5035586;28;20349;-72
2022/04/01 09:30:28;;;;;;;;;;;7.60;99.90;;;;;;5033906;28;19905;-72
2022/04/01 09:32:55;;;;;;;;;;;7.60;99.90;;;;;;5035085;28;20361;-72
2022/04/01 09:35:23;;;;;;;;;;;7.70;99.90;;;;;;5035131;28;19905;-71
2022/04/01 09:37:49;;;;;;;;;;;7.70;99.90;;;;;;5035378;28;19955;-71
2022/04/01 09:40:21;;;;;;;;;;;7.80;99.90;;;;;;5035051;28;19905;-72
2022/04/01 09:42:50;;;;;;;;;;;7.90;99.90;;;;;;5035125;28;19909;-72
2022/04/01 09:45:17;;;;;;;;;;;7.90;99.90;;;;;;5034926;28;20419;-72
2022/04/01 09:47:42;;;;;;;;;;;7.90;99.90;;;;;;5035633;28;19959;-73
2022/04/01 09:50:16;;;;;;;;;;;7.90;99.90;;;;;;5035117;28;19909;-70
2022/04/01 09:52:42;;;;;;;;;;;7.90;99.90;;;;;;5034010;28;19912;-72
2022/04/01 09:55:08;;;;;;;;;;;8.00;99.90;;;;;;5034565;28;20349;-71
2022/04/01 09:57:34;;;;;;;;;;;8.00;99.90;;;;;;5034911;28;19909;-72
2022/04/01 10:00:00;;;;;;;;;;;8.10;99.90;;;;;;5034614;28;19905;-72
2022/04/01 10:02:26;;;;;;;;;;;8.10;99.90;;;;;;5034390;28;20254;-71
2022/04/01 10:04:53;;;;;;;;;;;8.20;99.90;;;;;;5034155;28;19912;-70
2022/04/01 10:07:20;;;;;;;;;;;8.30;99.90;;;;;;5034472;28;19905;-71
2022/04/01 10:09:47;;;;;;;;;;;8.30;99.90;;;;;;5033127;28;19905;-71
2022/04/01 10:12:13;;;;;;;;;;;8.30;99.90;;;;;;5034379;28;19948;-72
2022/04/01 10:14:40;;;;;;;;;;;8.20;99.90;;;;;;5034286;28;19909;-71
2022/04/01 10:17:09;;;;;;;;;;;8.10;99.90;;;;;;5034676;28;19941;-72
2022/04/01 10:19:37;;;;;;;;;;;8.00;99.90;;;;;;5034263;28;20281;-71
2022/04/01 10:22:03;;;;;;;;;;;8.00;99.90;;;;;;5034518;28;20292;-70
2022/04/01 10:24:48;;;;;;;;;;;8.00;99.90;;;;;;5034033;28;19916;-70
2022/04/01 10:27:16;;;;;;;;;;;8.10;99.90;;;;;;5034075;28;19913;-72
2022/04/01 10:29:42;;;;;;;;;;;8.10;99.90;;;;;;5034130;28;19905;-71
2022/04/01 10:32:31;;;;;;;;;;;8.20;99.90;;;;;;5034367;28;20358;-71
2022/04/01 10:34:58;;;;;;;;;;;8.20;99.90;;;;;;5032906;28;19912;-71
2022/04/01 10:37:25;;;;;;;;;;;8.10;99.90;;;;;;5034152;28;19905;-69
2022/04/01 10:39:51;;;;;;;;;;;8.10;99.90;;;;;;5032663;28;19905;-70
2022/04/01 10:42:17;;;;;;;;;;;8.10;99.90;;;;;;5034497;28;19912;-71
2022/04/01 10:44:52;;;;;;;;;;;8.00;99.90;;;;;;5033787;28;20055;-71
2022/04/01 10:47:19;;;;;;;;;;;8.00;99.90;;;;;;5034426;28;20007;-72
2022/04/01 10:52:30;;;;;;;;;;;8.00;99.90;;;;;;5033839;28;20004;-71
2022/04/01 10:55:12;;;;;;;;;;;8.00;99.90;;;;;;5034164;28;19905;-70
2022/04/01 10:57:38;;;;;;;;;;;8.00;99.90;;;;;;5033838;28;20004;-71
2022/04/01 11:00:12;;;;;;;;;;;7.90;99.90;;;;;;5034375;28;20333;-71
2022/04/01 11:02:38;;;;;;;;;;;7.80;99.90;;;;;;5032481;28;19932;-71
2022/04/01 11:05:22;;;;;;;;;;;7.80;99.90;;;;;;5033773;28;19905;-70
2022/04/01 11:08:08;;;;;;;;;;;7.80;99.90;;;;;;5033988;28;19940;-71
2022/04/01 11:10:34;;;;;;;;;;;7.80;99.90;;;;;;5033643;28;19950;-71
2022/04/01 11:12:59;;;;;;;;;;;7.80;99.90;;;;;;5032486;28;19912;-71
2022/04/01 11:15:26;;;;;;;;;;;7.80;99.90;;;;;;5035554;28;19905;-70
2022/04/01 11:17:55;;;;;;;;;;;7.90;99.90;;;;;;5037852;28;19905;-70
2022/04/01 11:20:26;;;;;;;;;;;7.80;99.90;;;;;;5037680;28;19905;-71
2022/04/01 11:22:56;;;;;;;;;;;7.70;99.90;;;;;;5037081;28;19916;-73
2022/04/01 11:25:22;;;;;;;;;;;7.70;99.90;;;;;;5038388;28;20007;-73
2022/04/01 11:27:48;;;;;;;;;;;7.70;99.90;;;;;;5037952;28;20007;-72
2022/04/01 11:30:15;;;;;;;;;;;7.70;99.90;;;;;;5037746;28;19909;-73
2022/04/01 11:32:45;;;;;;;;;;;7.60;99.80;;;;;;5037688;28;19913;-73
2022/04/01 11:35:11;;;;;;;;;;;7.60;99.90;;;;;;5037828;28;19912;-73
2022/04/01 11:37:38;;;;;;;;;;;7.60;99.90;;;;;;5038291;28;19929;-72
2022/04/01 11:40:11;;;;;;;;;;;7.50;99.90;;;;;;5037716;28;20003;-73
2022/04/01 11:43:02;;;;;;;;;;;7.40;99.90;;;;;;5037507;28;19905;-73
2022/04/01 11:45:35;;;;;;;;;;;7.40;99.90;;;;;;5034403;28;19905;-73
2022/04/01 11:48:01;;;;;;;;;;;7.30;99.90;;;;;;5041800;28;19909;-73
2022/04/01 11:50:26;;;;;;;;;;;7.20;99.90;;;;;;5038663;28;19955;-73
2022/04/01 11:52:54;;;;;;;;;;;7.20;99.90;;;;;;5037319;28;20320;-73
2022/04/01 11:55:21;;;;;;;;;;;7.20;99.90;;;;;;5038294;28;19905;-74
2022/04/01 11:57:47;;;;;;;;;;;7.20;99.90;;;;;;5036574;28;19999;-72
2022/04/01 12:00:13;;;;;;;;;;;7.10;99.90;;;;;;5035524;28;19913;-72
2022/04/01 12:02:38;;;;;;;;;;;7.20;99.90;;;;;;5037206;28;19928;-72
2022/04/01 12:05:04;;;;;;;;;;;7.10;99.90;;;;;;5037189;28;20285;-73
2022/04/01 12:10:21;;;;;;;;;;;7.10;99.90;;;;;;5037189;28;19912;-73
2022/04/01 12:13:00;;;;;;;;;;;7.10;99.90;;;;;;5037006;28;19905;-73
2022/04/01 12:15:32;;;;;;;;;;;7.10;99.90;;;;;;5036826;28;20403;-73
2022/04/01 12:18:00;;;;;;;;;;;7.10;99.90;;;;;;5036888;28;20000;-73
2022/04/01 12:20:28;;;;;;;;;;;7.10;99.90;;;;;;5035486;28;20312;-73
2022/04/01 12:23:00;;;;;;;;;;;7.10;99.90;;;;;;5037125;28;20367;-73
2022/04/01 12:25:28;;;;;;;;;;;7.00;99.90;;;;;;5037017;28;20365;-73
2022/04/01 12:27:54;;;;;;;;;;;7.00;99.90;;;;;;5035729;28;20293;-73
2022/04/01 12:30:28;;;;;;;;;;;7.00;99.90;;;;;;5038382;28;19905;-72
2022/04/01 12:32:59;;;;;;;;;;;6.90;99.90;;;;;;5036959;28;19905;-73
2022/04/01 12:35:25;;;;;;;;;;;6.80;99.90;;;;;;5036763;28;19904;-73
2022/04/01 12:38:10;;;;;;;;;;;6.80;99.90;;;;;;5036979;28;20349;-73
2022/04/01 12:40:44;;;;;;;;;;;6.80;99.90;;;;;;5035194;28;20320;-72
2022/04/01 12:43:29;;;;;;;;;;;6.80;99.90;;;;;;5036288;28;19913;-73
2022/04/01 12:46:01;;;;;;;;;;;6.70;99.90;;;;;;5036412;28;19905;-73
2022/04/01 12:48:28;;;;;;;;;;;6.60;99.90;;;;;;5036466;28;19983;-73
2022/04/01 12:51:03;;;;;;;;;;;6.60;99.90;;;;;;5036260;28;19905;-73
2022/04/01 12:53:31;;;;;;;;;;;6.60;99.90;;;;;;5036051;28;20040;-73
2022/04/01 12:56:16;;;;;;;;;;;6.60;99.90;;;;;;5036064;28;19920;-73
2022/04/01 12:59:05;;;;;;;;;;;6.60;99.90;;;;;;5036353;28;19999;-73
2022/04/01 13:01:31;;;;;;;;;;;6.50;99.90;;;;;;5027069;28;19905;-73
2022/04/01 13:03:57;;;;;;;;;;;6.50;99.90;;;;;;5035813;28;19960;-73
2022/04/01 13:06:25;;;;;;;;;;;6.50;99.90;;;;;;5035789;28;19909;-73
2022/04/01 13:09:17;;;;;;;;;;;6.50;99.90;;;;;;5034553;28;19905;-74
2022/04/01 13:11:44;;;;;;;;;;;6.40;99.90;;;;;;5031753;28;19909;-74
2022/04/01 13:14:22;;;;;;;;;;;6.40;99.90;;;;;;5035630;28;19905;-73
2022/04/01 13:16:48;;;;;;;;;;;6.40;99.90;;;;;;5035876;28;19928;-74
2022/04/01 13:19:20;;;;;;;;;;;6.40;99.90;;;;;;5035993;28;19905;-74
2022/04/01 13:21:46;;;;;;;;;;;6.50;99.90;;;;;;5035476;28;20436;-74
2022/04/01 13:24:11;;;;;;;;;;;6.50;99.90;;;;;;5035248;28;20000;-73
2022/04/01 13:26:37;;;;;;;;;;;6.50;99.90;;;;;;5034404;28;20277;-74
2022/04/01 13:29:02;;;;;;;;;;;6.50;99.90;;;;;;5035335;28;20369;-74
2022/04/01 13:31:28;;;;;;;;;;;6.50;99.90;;;;;;5035565;28;19905;-74
2022/04/01 13:33:54;;;;;;;;;;;6.60;99.90;;;;;;5035133;28;20436;-73
2022/04/01 13:36:20;;;;;;;;;;;6.60;99.90;;;;;;5035107;28;20361;-74
2022/04/01 13:38:45;;;;;;;;;;;6.60;99.90;;;;;;5034504;28;19905;-73
2022/04/01 13:41:11;;;;;;;;;;;6.70;99.90;;;;;;5035130;28;20254;-73
2022/04/01 13:43:36;;;;;;;;;;;6.60;99.90;;;;;;5035179;28;20345;-73
2022/04/01 13:46:02;;;;;;;;;;;6.60;99.90;;;;;;5035158;28;19959;-73
2022/04/01 13:48:27;;;;;;;;;;;6.50;99.90;;;;;;5034011;28;19905;-74
2022/04/01 13:50:54;;;;;;;;;;;6.50;99.90;;;;;;5035315;28;19916;-74
2022/04/01 13:53:19;;;;;;;;;;;6.50;99.90;;;;;;5034847;28;19905;-73
2022/04/01 13:55:45;;;;;;;;;;;6.50;99.90;;;;;;5035198;28;19905;-74
2022/04/01 13:58:11;;;;;;;;;;;6.50;99.90;;;;;;5035028;28;19911;-74
2022/04/01 14:00:45;;;;;;;;;;;6.50;99.90;;;;;;5112809;27;19919;-74
2022/04/01 14:03:10;;;;;;;;;;;6.60;99.90;;;;;;5111785;28;19961;-74
2022/04/01 14:05:36;;;;;;;;;;;6.60;99.90;;;;;;5112098;28;19912;-74
2022/04/01 14:08:01;;;;;;;;;;;6.50;99.90;;;;;;5111960;28;19915;-74
2022/04/01 14:10:27;;;;;;;;;;;6.50;99.90;;;;;;5112220;28;20272;-74
2022/04/01 14:12:52;;;;;;;;;;;6.40;99.90;;;;;;5110199;28;19944;-74
2022/04/01 14:15:18;;;;;;;;;;;6.50;99.90;;;;;;5111750;28;19908;-74
2022/04/01 14:17:44;;;;;;;;;;;6.50;99.90;;;;;;5111646;28;19915;-74
2022/04/01 14:20:12;;;;;;;;;;;6.40;99.90;;;;;;5111379;28;19912;-74
2022/04/01 14:22:37;;;;;;;;;;;6.40;99.90;;;;;;5111697;28;20405;-74
2022/04/01 14:25:03;;;;;;;;;;;6.40;99.90;;;;;;5111294;28;19912;-74
2022/04/01 14:27:29;;;;;;;;;;;6.30;99.90;;;;;;5111341;28;19912;-74
2022/04/01 14:32:39;;;;;;;;;;;6.20;99.90;;;;;;5111224;28;19915;-74
2022/04/01 14:35:06;;;;;;;;;;;6.10;99.90;;;;;;5111457;28;19908;-74
2022/04/01 14:37:31;;;;;;;;;;;6.10;99.90;;;;;;5111238;28;19913;-74
2022/04/01 14:39:57;;;;;;;;;;;6.00;99.90;;;;;;5111316;28;19961;-75
2022/04/01 14:42:23;;;;;;;;;;;6.00;99.90;;;;;;5111012;28;19908;-74
2022/04/01 14:44:48;;;;;;;;;;;6.00;99.90;;;;;;5111342;28;19939;-74
2022/04/01 14:47:14;;;;;;;;;;;5.90;99.90;;;;;;5111284;28;19947;-74
2022/04/01 14:49:39;;;;;;;;;;;5.90;99.90;;;;;;5111217;28;19908;-74